Eureka, West Virginia
Current Conditions -  °F | °C
As of 2:07 PM on Tuesday 21 Oct 2014 (Local Time) from KPKB Reporting Station
Light Rain Light Rain  
Wind Chill: 51°   Ceiling: 1700
Heat Index: 51°   Visibility: 5mi
Dew Point: 48°   Wind: 10mph
Humidity: 89%   Direction: 300°WNW
Pressure: 29.96"   Gusts: NA
Location:  39.3518°N, 81.2939°W
Report Text: KPKB 211807Z 30009KT 5SM -RA BR SCT011 BKN017 OVC047 11/09 A2996 RMK AO2 P0001 T01060089
Loading
Personal Weather Stations






























Interactive Weather Map
Tropical Storm Tracking
New forecast layout! Learn more

10-Day Weather Forecast

Advertisements
Track Severe Weather on mobile